Time;durP1;ratioP1;P1;durP2;ratioP2;P2;SDS_P1;SDS_P2;PMS_P1;PMS_P2;Temp;Humidity;BMP_temperature;BMP_pressure;BME280_temperature;BME280_humidity;BME280_pressure;Samples;Min_cycle;Max_cycle;Signal;HPM_P1;HPM_P2
2023/04/10 00:00:09;;;;;;;63.70;40.55;;;8.90;99.90;;;;;;4922865;29;20039;-73
2023/04/10 00:02:38;;;;;;;67.82;39.65;;;8.90;99.90;;;;;;4920445;28;20063;-73
2023/04/10 00:05:03;;;;;;;64.40;39.42;;;8.90;99.90;;;;;;4937240;29;20488;-74
2023/04/10 00:07:30;;;;;;;65.88;40.80;;;8.90;99.90;;;;;;4935502;29;20050;-74
2023/04/10 00:09:55;;;;;;;63.90;40.40;;;8.90;99.90;;;;;;4947846;28;20484;-73
2023/04/10 00:12:21;;;;;;;61.75;38.40;;;8.90;99.90;;;;;;4960895;28;20038;-74
2023/04/10 00:14:47;;;;;;;70.45;40.85;;;8.80;99.90;;;;;;4947375;28;20038;-74
2023/04/10 00:17:12;;;;;;;64.45;41.13;;;8.80;99.90;;;;;;4957277;28;20114;-73
2023/04/10 00:19:38;;;;;;;64.03;39.08;;;8.80;99.90;;;;;;4931941;28;20039;-73
2023/04/10 00:22:04;;;;;;;65.75;39.92;;;8.80;99.90;;;;;;4953610;28;20049;-75
2023/04/10 00:24:30;;;;;;;66.13;40.65;;;8.80;99.90;;;;;;4953286;28;20487;-73
2023/04/10 00:26:56;;;;;;;66.38;40.95;;;8.80;99.90;;;;;;4960671;28;20047;-73
2023/04/10 00:29:22;;;;;;;65.38;40.08;;;8.70;99.90;;;;;;4947170;28;20047;-73
2023/04/10 00:31:48;;;;;;;63.58;40.83;;;8.70;99.90;;;;;;4946176;28;20046;-73
2023/04/10 00:34:14;;;;;;;66.40;41.17;;;8.70;99.90;;;;;;4943604;29;20071;-73
2023/04/10 00:36:39;;;;;;;65.40;41.10;;;8.70;99.90;;;;;;4951460;28;20479;-74
2023/04/10 00:39:06;;;;;;;70.63;43.10;;;8.70;99.90;;;;;;4949767;28;20404;-73
2023/04/10 00:41:33;;;;;;;74.15;45.15;;;8.60;99.90;;;;;;4937458;28;20051;-74
2023/04/10 00:43:59;;;;;;;77.00;45.95;;;8.60;99.90;;;;;;4947376;28;20097;-73
2023/04/10 00:46:26;;;;;;;75.57;46.53;;;8.60;99.90;;;;;;4925002;29;20419;-73
2023/04/10 00:48:53;;;;;;;76.47;44.88;;;8.50;99.90;;;;;;4936611;28;20549;-73
2023/04/10 00:51:20;;;;;;;82.00;47.35;;;8.50;99.90;;;;;;4944332;28;20490;-73
2023/04/10 00:53:55;;;;;;;79.72;47.78;;;8.50;99.90;;;;;;4947928;28;20038;-73
2023/04/10 00:56:23;;;;;;;85.57;48.03;;;8.40;99.90;;;;;;4931350;29;20498;-74
2023/04/10 00:58:48;;;;;;;79.15;46.40;;;8.40;99.90;;;;;;4930266;28;20039;-73
2023/04/10 01:01:14;;;;;;;79.47;45.95;;;8.40;99.90;;;;;;4949654;28;20062;-73
2023/04/10 01:03:41;;;;;;;81.50;47.95;;;8.30;99.90;;;;;;4920387;29;20043;-73
2023/04/10 01:06:38;;;;;;;83.95;48.05;;;8.40;99.90;;;;;;4938603;29;20047;-73
2023/04/10 01:09:25;;;;;;;85.45;48.45;;;8.30;99.90;;;;;;4951929;28;20042;-74
2023/04/10 01:11:59;;;;;;;79.25;47.58;;;8.30;99.90;;;;;;4939332;28;20561;-72
2023/04/10 01:15:02;;;;;;;76.93;46.40;;;8.30;99.90;;;;;;4942433;28;20042;-73
2023/04/10 01:17:39;;;;;;;85.97;48.83;;;8.30;99.90;;;;;;4920958;29;20147;-73
2023/04/10 01:20:23;;;;;;;90.25;49.33;;;8.20;99.90;;;;;;4929877;29;20130;-74
2023/04/10 01:23:08;;;;;;;91.00;49.90;;;8.20;99.90;;;;;;4921096;28;20051;-73
2023/04/10 01:26:02;;;;;;;87.32;48.92;;;8.20;99.90;;;;;;4950129;28;20047;-73
2023/04/10 01:28:56;;;;;;;82.03;48.47;;;8.20;99.90;;;;;;4944620;28;20061;-73
2023/04/10 01:32:11;;;;;;;91.43;48.67;;;8.10;99.90;;;;;;4946888;28;20075;-73
2023/04/10 01:34:43;;;;;;;89.28;48.42;;;8.10;99.90;;;;;;4921826;28;20528;-73
2023/04/10 01:37:21;;;;;;;87.45;48.67;;;8.10;99.90;;;;;;4941899;28;20047;-73
2023/04/10 01:39:52;;;;;;;87.38;50.28;;;8.10;99.90;;;;;;4933125;28;20048;-74
2023/04/10 01:42:20;;;;;;;86.03;49.35;;;8.10;99.90;;;;;;4940639;28;20042;-73
2023/04/10 01:44:47;;;;;;;78.55;45.70;;;8.10;99.90;;;;;;4931877;28;20043;-73
2023/04/10 01:47:15;;;;;;;78.00;46.03;;;8.10;99.90;;;;;;4948124;29;20043;-74
2023/04/10 01:49:46;;;;;;;77.90;47.13;;;8.00;99.90;;;;;;4959646;28;20505;-73
2023/04/10 01:52:13;;;;;;;88.07;46.95;;;8.10;99.90;;;;;;4940764;29;20099;-74
2023/04/10 01:54:39;;;;;;;88.88;48.40;;;8.00;99.90;;;;;;4940769;28;20090;-74
2023/04/10 01:57:05;;;;;;;84.93;46.58;;;8.00;99.90;;;;;;4929724;29;20035;-73
2023/04/10 01:59:31;;;;;;;75.35;45.10;;;8.00;99.90;;;;;;4955525;28;20049;-73
2023/04/10 02:01:57;;;;;;;73.95;43.45;;;8.00;99.90;;;;;;4938832;29;20036;-73
2023/04/10 02:04:25;;;;;;;70.18;42.20;;;8.00;99.90;;;;;;4960061;28;20403;-73
2023/04/10 02:07:02;;;;;;;68.10;42.10;;;8.00;99.90;;;;;;4923255;28;20118;-74
2023/04/10 02:09:46;;;;;;;65.90;40.88;;;8.00;99.90;;;;;;4946873;28;20039;-73
2023/04/10 02:12:23;;;;;;;61.75;39.40;;;8.00;99.90;;;;;;4949691;28;20045;-74
2023/04/10 02:14:50;;;;;;;60.90;39.25;;;8.00;99.90;;;;;;4936941;29;20047;-73
2023/04/10 02:17:22;;;;;;;59.83;40.17;;;8.00;99.90;;;;;;4932926;29;20503;-74
2023/04/10 02:19:49;;;;;;;64.28;40.22;;;8.00;99.90;;;;;;4933348;28;20043;-73
2023/04/10 02:22:15;;;;;;;63.30;39.88;;;8.00;99.90;;;;;;4929764;29;20086;-74
2023/04/10 02:24:41;;;;;;;64.20;38.33;;;8.00;99.90;;;;;;4962918;28;20042;-73
2023/04/10 02:27:07;;;;;;;59.05;39.67;;;8.00;99.90;;;;;;4945881;28;20075;-74
2023/04/10 02:29:32;;;;;;;64.30;40.00;;;8.00;99.90;;;;;;4931353;29;20035;-74
2023/04/10 02:31:59;;;;;;;62.60;39.10;;;8.00;99.90;;;;;;4951726;28;20369;-74
2023/04/10 02:34:26;;;;;;;60.83;39.55;;;8.00;99.90;;;;;;4921160;29;20040;-73
2023/04/10 02:36:51;;;;;;;62.95;38.35;;;8.00;99.90;;;;;;4940159;28;20418;-74
2023/04/10 02:39:17;;;;;;;60.78;39.45;;;8.00;99.90;;;;;;4933113;29;20430;-74
2023/04/10 02:41:42;;;;;;;65.60;39.83;;;8.00;99.90;;;;;;4954477;28;20515;-73
2023/04/10 02:44:08;;;;;;;63.75;39.95;;;8.00;99.90;;;;;;4925154;28;20049;-73
2023/04/10 02:46:34;;;;;;;63.50;39.50;;;8.10;99.90;;;;;;4937594;28;20054;-74
2023/04/10 02:49:00;;;;;;;63.95;41.00;;;8.10;99.90;;;;;;4961092;28;20075;-74
2023/04/10 02:51:26;;;;;;;64.32;40.08;;;8.10;99.90;;;;;;4926284;29;20488;-74
2023/04/10 02:53:51;;;;;;;62.90;40.15;;;8.00;99.90;;;;;;4939905;28;20054;-74
2023/04/10 02:56:17;;;;;;;60.78;39.42;;;8.00;99.90;;;;;;4962565;28;20042;-74
2023/04/10 02:58:45;;;;;;;64.88;39.60;;;8.00;99.90;;;;;;4946247;28;20070;-73
2023/04/10 03:01:11;;;;;;;67.30;40.72;;;8.00;99.90;;;;;;4937204;29;20043;-73
2023/04/10 03:03:37;;;;;;;67.68;40.88;;;8.00;99.90;;;;;;4945993;28;20126;-74
2023/04/10 03:06:02;;;;;;;69.05;40.75;;;8.00;99.90;;;;;;4944557;29;20138;-73
2023/04/10 03:08:29;;;;;;;66.07;41.13;;;8.00;99.90;;;;;;4944682;28;20081;-73
2023/04/10 03:10:55;;;;;;;61.47;40.67;;;8.00;99.90;;;;;;4958911;28;20035;-74
2023/04/10 03:13:22;;;;;;;63.15;40.40;;;8.30;99.90;;;;;;4934480;29;20436;-74
2023/04/10 03:15:47;;;;;;;64.32;39.25;;;8.00;99.90;;;;;;4936636;28;20051;-74
2023/04/10 03:18:13;;;;;;;64.97;40.10;;;8.00;99.90;;;;;;4934409;28;20480;-73
2023/04/10 03:20:39;;;;;;;66.38;40.85;;;8.00;99.90;;;;;;4973005;23;20053;-74
2023/04/10 03:23:05;;;;;;;62.92;40.20;;;8.00;99.90;;;;;;4972138;28;20034;-74
2023/04/10 03:25:33;;;;;;;61.85;40.08;;;8.00;99.90;;;;;;4975026;28;20053;-74
2023/04/10 03:27:58;;;;;;;69.68;41.25;;;8.00;99.90;;;;;;4971560;28;20718;-74
2023/04/10 03:30:24;;;;;;;61.95;40.08;;;8.00;99.90;;;;;;4975536;28;20133;-74
2023/04/10 03:32:50;;;;;;;63.40;40.17;;;8.00;99.90;;;;;;4970740;28;20051;-72
2023/04/10 03:35:15;;;;;;;62.70;40.45;;;8.00;99.90;;;;;;4970156;28;20034;-72
2023/04/10 03:37:41;;;;;;;63.10;39.50;;;8.00;99.90;;;;;;4981721;28;20051;-72
2023/04/10 03:40:08;;;;;;;66.28;40.63;;;8.00;99.90;;;;;;4975672;28;20117;-72
2023/04/10 03:42:34;;;;;;;63.15;39.38;;;8.00;99.90;;;;;;4975034;28;20070;-72
2023/04/10 03:45:03;;;;;;;59.33;39.55;;;8.00;99.90;;;;;;4982011;28;20049;-72
2023/04/10 03:47:30;;;;;;;63.35;39.65;;;8.00;99.90;;;;;;4987006;28;20058;-72
2023/04/10 03:49:55;;;;;;;60.25;37.75;;;8.00;99.90;;;;;;4983373;28;20521;-72
2023/04/10 03:52:21;;;;;;;63.35;39.05;;;7.90;99.90;;;;;;4992322;28;20038;-72
2023/04/10 03:54:47;;;;;;;60.33;38.70;;;7.90;99.90;;;;;;4970754;28;20045;-72
2023/04/10 03:57:12;;;;;;;63.05;38.80;;;7.90;99.90;;;;;;4973324;28;20047;-72
2023/04/10 03:59:38;;;;;;;58.40;37.63;;;7.90;99.90;;;;;;4974750;28;20046;-72
2023/04/10 04:02:03;;;;;;;59.08;37.38;;;7.90;99.90;;;;;;4974853;28;20042;-72
2023/04/10 04:04:30;;;;;;;63.15;38.17;;;7.90;99.90;;;;;;4974320;28;20050;-72
2023/04/10 04:06:55;;;;;;;55.80;36.90;;;7.90;99.90;;;;;;4976957;28;20100;-72
2023/04/10 04:09:21;;;;;;;62.97;38.00;;;7.90;99.90;;;;;;4969284;28;20465;-72
2023/04/10 04:11:46;;;;;;;57.42;37.10;;;7.90;99.90;;;;;;4971400;28;20125;-72
2023/04/10 04:14:12;;;;;;;58.33;38.15;;;7.90;99.90;;;;;;4981084;28;20038;-72
2023/04/10 04:16:37;;;;;;;58.28;37.10;;;7.90;99.90;;;;;;4974443;28;20123;-72
2023/04/10 04:19:03;;;;;;;56.63;37.30;;;7.90;99.90;;;;;;4974632;28;20093;-72
2023/04/10 04:21:31;;;;;;;59.33;36.92;;;7.90;99.90;;;;;;4974321;28;20046;-72
2023/04/10 04:23:56;;;;;;;58.47;36.60;;;7.90;99.90;;;;;;4961937;28;20050;-72
2023/04/10 04:26:23;;;;;;;55.35;35.53;;;7.90;99.90;;;;;;4972570;28;20042;-72
2023/04/10 04:28:49;;;;;;;58.88;36.20;;;7.90;99.90;;;;;;4972548;28;20093;-72
2023/04/10 04:31:15;;;;;;;53.00;34.85;;;8.00;99.90;;;;;;4974326;28;20479;-72
2023/04/10 04:33:40;;;;;;;54.17;35.33;;;8.00;99.90;;;;;;4974105;28;20038;-72
2023/04/10 04:36:06;;;;;;;52.63;35.97;;;8.00;99.90;;;;;;4986926;28;20035;-72
2023/04/10 04:38:32;;;;;;;57.53;35.28;;;8.00;99.90;;;;;;4974141;28;20078;-72
2023/04/10 04:40:57;;;;;;;55.92;34.80;;;8.10;99.90;;;;;;4990640;28;20038;-72
2023/04/10 04:43:23;;;;;;;60.03;36.72;;;8.10;99.90;;;;;;4991565;28;20122;-72
2023/04/10 04:45:49;;;;;;;54.88;34.45;;;8.10;99.90;;;;;;4976439;28;20043;-72
2023/04/10 04:48:14;;;;;;;53.83;34.58;;;8.00;99.90;;;;;;4968949;28;20038;-72
2023/04/10 04:50:40;;;;;;;57.42;35.47;;;8.30;99.90;;;;;;4965809;28;20042;-72
2023/04/10 04:53:07;;;;;;;56.30;34.38;;;8.00;99.90;;;;;;4974223;28;20042;-72
2023/04/10 04:55:33;;;;;;;51.28;34.40;;;8.00;99.90;;;;;;4972325;28;20050;-72
2023/04/10 04:57:58;;;;;;;58.70;34.95;;;8.00;99.90;;;;;;4991645;28;20471;-72
2023/04/10 05:00:24;;;;;;;53.63;34.30;;;8.00;99.90;;;;;;4966856;28;20101;-72
2023/04/10 05:02:50;;;;;;;55.90;33.67;;;8.00;99.90;;;;;;4987585;28;20039;-72
2023/04/10 05:05:15;;;;;;;52.10;33.38;;;8.00;99.90;;;;;;4973868;28;20061;-72
2023/04/10 05:07:41;;;;;;;52.65;31.33;;;7.90;99.90;;;;;;4973416;28;20093;-72
2023/04/10 05:10:07;;;;;;;51.75;32.65;;;7.90;99.90;;;;;;4972857;28;20135;-72
2023/04/10 05:12:33;;;;;;;50.25;31.85;;;7.90;99.90;;;;;;4976869;28;20688;-71
2023/04/10 05:14:58;;;;;;;52.53;31.42;;;7.90;99.90;;;;;;4974320;28;20113;-72
2023/04/10 05:17:24;;;;;;;48.85;31.02;;;7.90;99.90;;;;;;4976330;28;20049;-72
2023/04/10 05:19:49;;;;;;;52.30;31.77;;;7.90;99.90;;;;;;4976423;28;20043;-72
2023/04/10 05:22:15;;;;;;;46.35;30.95;;;7.90;99.90;;;;;;4992368;28;20497;-72
2023/04/10 05:24:41;;;;;;;47.22;30.90;;;7.90;99.90;;;;;;5001777;28;20038;-72
2023/04/10 05:27:06;;;;;;;49.42;30.35;;;7.80;99.90;;;;;;4976457;28;20042;-71
2023/04/10 05:29:32;;;;;;;49.08;29.95;;;7.80;99.90;;;;;;4993788;28;20666;-72
2023/04/10 05:31:57;;;;;;;43.55;28.75;;;7.80;99.90;;;;;;4977458;28;20042;-72
2023/04/10 05:34:23;;;;;;;45.50;29.63;;;7.90;99.90;;;;;;4977849;28;20120;-72
2023/04/10 05:36:48;;;;;;;45.83;30.48;;;7.90;99.90;;;;;;4974495;28;20042;-72
2023/04/10 05:39:14;;;;;;;44.83;27.98;;;7.90;99.90;;;;;;4965922;28;20044;-72
2023/04/10 05:41:40;;;;;;;45.53;27.75;;;7.90;99.90;;;;;;4977030;28;20042;-72
2023/04/10 05:44:05;;;;;;;45.05;27.27;;;7.90;99.90;;;;;;4975900;28;20038;-72
2023/04/10 05:46:31;;;;;;;43.75;28.17;;;7.90;99.90;;;;;;4974334;28;20116;-74
2023/04/10 05:48:57;;;;;;;45.63;27.55;;;7.90;99.90;;;;;;4983860;28;20030;-74
2023/04/10 05:51:22;;;;;;;43.70;27.70;;;7.40;99.90;;;;;;4988787;28;20050;-74
2023/04/10 05:53:49;;;;;;;45.20;28.90;;;8.00;99.90;;;;;;4972224;28;20426;-74
2023/04/10 05:56:15;;;;;;;43.65;26.85;;;8.00;99.90;;;;;;4971593;28;20042;-74
2023/04/10 05:58:41;;;;;;;41.40;26.25;;;8.00;99.90;;;;;;4976359;28;20046;-74
2023/04/10 06:01:06;;;;;;;46.85;26.25;;;8.00;99.90;;;;;;4980710;28;20575;-74
2023/04/10 06:03:32;;;;;;;41.67;25.25;;;8.10;99.90;;;;;;4976422;28;20502;-73
2023/04/10 06:05:59;;;;;;;41.80;25.52;;;8.10;99.90;;;;;;4976638;28;20486;-72
2023/04/10 06:08:25;;;;;;;42.72;26.10;;;8.10;99.90;;;;;;4973972;28;20049;-72
2023/04/10 06:10:50;;;;;;;39.90;26.10;;;8.20;99.90;;;;;;4970474;28;20042;-72
2023/04/10 06:13:16;;;;;;;40.28;25.88;;;8.20;99.90;;;;;;4979040;28;20041;-72
2023/04/10 06:15:42;;;;;;;43.80;26.52;;;8.20;99.90;;;;;;4973528;28;20053;-73
2023/04/10 06:18:08;;;;;;;42.40;26.85;;;8.30;99.90;;;;;;4979425;28;20042;-74
2023/04/10 06:20:33;;;;;;;42.65;26.95;;;8.30;99.90;;;;;;4976561;28;20138;-72
2023/04/10 06:22:59;;;;;;;43.92;26.60;;;8.30;99.90;;;;;;4998492;28;20044;-72
2023/04/10 06:25:25;;;;;;;41.70;25.80;;;8.40;99.90;;;;;;4978623;28;20042;-72
2023/04/10 06:27:51;;;;;;;40.10;27.15;;;8.40;99.90;;;;;;4974721;28;20058;-72
2023/04/10 06:30:16;;;;;;;42.42;27.58;;;8.40;99.90;;;;;;4972678;28;20402;-72
2023/04/10 06:32:42;;;;;;;43.63;27.77;;;8.40;99.90;;;;;;4976608;28;20042;-72
2023/04/10 06:35:08;;;;;;;45.55;28.05;;;8.50;99.90;;;;;;4983842;28;20034;-72
2023/04/10 06:37:33;;;;;;;46.00;28.80;;;8.50;99.90;;;;;;4994130;28;20058;-72
2023/04/10 06:40:07;;;;;;;47.65;29.42;;;8.50;99.90;;;;;;4971607;28;20402;-72
2023/04/10 06:42:34;;;;;;;51.05;30.52;;;8.50;99.90;;;;;;4958338;28;20065;-74
2023/04/10 06:44:59;;;;;;;50.33;29.95;;;8.60;99.90;;;;;;4976207;28;20491;-74
2023/04/10 06:47:25;;;;;;;51.38;30.25;;;8.60;99.90;;;;;;4961259;28;20038;-75
2023/04/10 06:49:51;;;;;;;50.10;30.92;;;8.60;99.90;;;;;;4976284;28;20160;-74
2023/04/10 06:52:17;;;;;;;49.88;30.00;;;8.70;99.90;;;;;;4985704;28;20034;-76
2023/04/10 06:54:42;;;;;;;51.45;32.30;;;8.70;99.90;;;;;;4980995;28;20166;-74
2023/04/10 06:57:08;;;;;;;51.58;32.40;;;8.70;99.90;;;;;;4981277;28;20084;-74
2023/04/10 06:59:34;;;;;;;53.17;32.40;;;8.80;99.90;;;;;;4978685;28;20483;-74
2023/04/10 07:02:01;;;;;;;53.70;30.92;;;8.80;99.90;;;;;;4983474;28;20042;-74
2023/04/10 07:04:27;;;;;;;46.35;30.17;;;8.90;99.90;;;;;;4978326;28;20046;-74
2023/04/10 07:06:52;;;;;;;48.58;31.02;;;8.90;99.90;;;;;;4986469;28;20387;-75
2023/04/10 07:09:18;;;;;;;47.88;29.38;;;9.00;99.90;;;;;;4966694;28;20038;-74
2023/04/10 07:11:43;;;;;;;47.50;29.77;;;9.00;99.90;;;;;;4967412;28;20039;-75
2023/04/10 07:14:10;;;;;;;44.88;28.58;;;9.00;99.90;;;;;;4975626;28;20112;-74
2023/04/10 07:16:36;;;;;;;46.05;28.30;;;9.10;99.90;;;;;;4958032;28;20043;-72
2023/04/10 07:19:01;;;;;;;43.80;27.25;;;9.10;99.90;;;;;;4959540;28;20038;-73
2023/04/10 07:21:27;;;;;;;40.67;27.33;;;9.10;99.90;;;;;;4974883;28;20050;-72
2023/04/10 07:23:53;;;;;;;46.50;28.42;;;9.20;99.90;;;;;;4970345;28;20065;-72
2023/04/10 07:26:18;;;;;;;40.00;25.40;;;9.30;99.90;;;;;;4994644;28;20491;-72
2023/04/10 07:28:44;;;;;;;40.70;25.90;;;9.30;99.90;;;;;;4975083;28;20262;-72
2023/04/10 07:31:10;;;;;;;38.78;25.45;;;9.40;99.90;;;;;;4976738;28;20034;-72
2023/04/10 07:33:37;;;;;;;41.95;25.50;;;9.40;99.90;;;;;;4992958;28;20557;-72
2023/04/10 07:36:04;;;;;;;39.05;24.10;;;9.50;99.90;;;;;;4959380;28;20097;-71
2023/04/10 07:38:30;;;;;;;39.92;25.58;;;9.60;99.90;;;;;;4991850;28;20046;-72
2023/04/10 07:40:57;;;;;;;39.70;23.92;;;9.60;99.90;;;;;;4973479;28;20093;-72
2023/04/10 07:43:22;;;;;;;37.45;24.88;;;9.70;99.90;;;;;;4993033;28;20038;-75
2023/04/10 07:45:48;;;;;;;37.25;23.45;;;9.80;99.90;;;;;;4989378;28;20038;-72
2023/04/10 07:48:13;;;;;;;38.80;23.42;;;9.90;99.90;;;;;;4975364;28;20430;-72
2023/04/10 07:50:39;;;;;;;35.75;23.55;;;10.00;99.90;;;;;;4971886;28;20042;-72
2023/04/10 07:53:06;;;;;;;36.90;22.95;;;10.10;99.90;;;;;;4992729;28;20042;-72
2023/04/10 07:55:40;;;;;;;34.22;22.15;;;10.10;99.90;;;;;;4966765;28;20046;-72
2023/04/10 07:58:06;;;;;;;36.20;22.25;;;10.20;99.90;;;;;;4978885;28;20052;-72
2023/04/10 08:00:32;;;;;;;31.55;21.08;;;10.40;99.90;;;;;;4981014;28;20045;-72
2023/04/10 08:02:57;;;;;;;31.10;20.13;;;10.60;99.90;;;;;;4975578;28;20034;-72
2023/04/10 08:05:23;;;;;;;29.92;18.92;;;10.60;99.90;;;;;;4990634;28;20042;-73
2023/04/10 08:07:49;;;;;;;27.17;18.63;;;10.70;99.90;;;;;;4974771;28;20074;-73
2023/04/10 08:10:14;;;;;;;29.45;18.77;;;10.90;99.90;;;;;;4979319;28;20037;-72
2023/04/10 08:12:40;;;;;;;26.13;17.55;;;10.90;99.90;;;;;;4975266;28;20046;-72
2023/04/10 08:15:06;;;;;;;25.85;17.35;;;10.90;99.90;;;;;;4999133;28;20038;-72
2023/04/10 08:17:32;;;;;;;26.30;16.60;;;11.00;99.90;;;;;;4977455;28;20046;-72
2023/04/10 08:19:57;;;;;;;23.27;15.18;;;11.00;99.90;;;;;;4966433;28;20042;-72
2023/04/10 08:22:23;;;;;;;24.40;16.15;;;11.20;99.90;;;;;;4970709;28;20490;-72
2023/04/10 08:24:48;;;;;;;24.73;16.73;;;11.20;99.90;;;;;;4987599;28;20046;-72
2023/04/10 08:27:15;;;;;;;23.85;15.77;;;11.30;99.90;;;;;;4974624;28;20063;-72
2023/04/10 08:29:41;;;;;;;21.90;14.07;;;11.30;99.90;;;;;;4968417;28;20129;-73
2023/04/10 08:32:06;;;;;;;22.40;14.02;;;11.30;99.90;;;;;;4990243;28;20463;-73
2023/04/10 08:34:32;;;;;;;21.85;14.90;;;11.40;99.90;;;;;;4992344;28;20535;-73
2023/04/10 08:36:57;;;;;;;20.55;14.13;;;11.40;99.90;;;;;;4976957;28;20040;-73
2023/04/10 08:39:23;;;;;;;19.67;13.55;;;11.50;99.90;;;;;;4979109;28;20112;-73
2023/04/10 08:41:49;;;;;;;23.55;14.23;;;11.60;99.90;;;;;;4973915;28;20080;-73
2023/04/10 08:44:15;;;;;;;18.55;12.88;;;11.70;99.90;;;;;;4972627;28;20582;-73
2023/04/10 08:46:43;;;;;;;17.75;12.90;;;11.70;99.90;;;;;;4974011;28;20379;-73
2023/04/10 08:49:14;;;;;;;20.17;12.75;;;11.80;99.90;;;;;;4974494;28;20481;-73
2023/04/10 08:51:55;;;;;;;19.58;12.57;;;11.90;99.90;;;;;;4973750;28;20049;-73
2023/04/10 08:54:28;;;;;;;21.60;12.95;;;12.00;99.90;;;;;;4973859;28;20045;-73
2023/04/10 08:56:55;;;;;;;18.27;13.20;;;12.10;99.90;;;;;;4972757;28;20554;-72
2023/04/10 08:59:21;;;;;;;17.48;12.02;;;12.20;99.90;;;;;;4990646;28;20038;-73
2023/04/10 09:01:47;;;;;;;18.15;12.43;;;12.30;99.90;;;;;;4988056;28;20061;-73
2023/04/10 09:04:13;;;;;;;17.30;12.73;;;12.40;99.90;;;;;;4974489;28;20030;-73
2023/04/10 09:06:39;;;;;;;18.77;12.52;;;12.50;99.90;;;;;;4972960;28;20108;-73
2023/04/10 09:09:05;;;;;;;16.10;11.23;;;12.60;99.90;;;;;;4980515;28;20117;-73
2023/04/10 09:11:59;;;;;;;17.15;12.40;;;12.60;99.90;;;;;;4972757;28;20415;-73
2023/04/10 09:14:27;;;;;;;16.63;11.82;;;12.80;99.90;;;;;;4981042;28;20046;-73
2023/04/10 09:16:53;;;;;;;15.25;10.65;;;12.80;99.90;;;;;;4987462;28;20042;-73
2023/04/10 09:19:32;;;;;;;16.63;11.30;;;12.90;99.90;;;;;;4974056;28;20491;-73
2023/04/10 09:21:58;;;;;;;15.23;11.00;;;13.10;99.90;;;;;;5040072;22;20401;-76
2023/04/10 09:24:25;;;;;;;15.18;11.40;;;13.20;99.90;;;;;;4970056;28;20116;-75
2023/04/10 09:26:50;;;;;;;17.05;10.95;;;13.30;99.90;;;;;;4968384;28;20038;-75
2023/04/10 09:29:16;;;;;;;16.17;10.95;;;13.40;99.90;;;;;;4987698;28;20076;-77
2023/04/10 09:31:42;;;;;;;14.82;10.75;;;13.50;99.90;;;;;;4965712;28;20050;-75
2023/04/10 09:34:16;;;;;;;16.80;11.50;;;13.50;99.90;;;;;;4960670;28;20039;-75
2023/04/10 09:36:51;;;;;;;15.63;10.75;;;13.50;99.90;;;;;;4954401;28;20050;-77
2023/04/10 09:39:17;;;;;;;14.38;10.27;;;13.50;99.90;;;;;;4942290;28;20046;-75
2023/04/10 09:41:50;;;;;;;14.40;10.60;;;13.60;99.90;;;;;;4949460;28;20402;-75
2023/04/10 09:44:18;;;;;;;13.70;10.00;;;13.70;99.90;;;;;;4953703;28;20075;-75
2023/04/10 09:46:45;;;;;;;12.98;9.50;;;13.90;99.90;;;;;;4950544;28;20044;-75
2023/04/10 09:49:10;;;;;;;13.32;9.85;;;14.00;99.90;;;;;;4973796;28;20521;-75
2023/04/10 09:51:38;;;;;;;11.85;8.88;;;14.10;99.90;;;;;;4954330;28;20046;-75
2023/04/10 09:54:03;;;;;;;12.05;8.88;;;14.10;99.90;;;;;;4955035;28;20423;-75
2023/04/10 09:56:30;;;;;;;13.20;8.95;;;14.20;99.90;;;;;;4957451;28;20035;-76
2023/04/10 09:59:00;;;;;;;12.77;8.88;;;14.40;99.90;;;;;;4941521;28;20286;-76
2023/04/10 10:01:27;;;;;;;13.40;8.30;;;14.50;99.70;;;;;;4970663;28;20049;-75
2023/04/10 10:03:54;;;;;;;11.35;8.43;;;14.60;99.80;;;;;;4943870;28;20038;-75
2023/04/10 10:06:24;;;;;;;11.15;8.40;;;14.80;99.90;;;;;;4949752;28;20049;-75
2023/04/10 10:08:50;;;;;;;9.95;7.57;;;14.80;99.40;;;;;;4966248;28;20051;-75
2023/04/10 10:11:23;;;;;;;12.63;8.23;;;14.90;99.40;;;;;;4964361;28;20418;-75
2023/04/10 10:13:55;;;;;;;10.98;8.23;;;14.90;99.20;;;;;;4959352;28;20043;-75
2023/04/10 10:16:21;;;;;;;;;;;14.80;98.60;;;;;;4953173;28;20031;-75
2023/04/10 10:19:00;;;;;;;10.48;7.55;;;14.70;98.30;;;;;;4975454;28;19921;-75
2023/04/10 10:21:27;;;;;;;10.75;7.65;;;14.70;98.50;;;;;;4966657;28;20058;-75
2023/04/10 10:23:55;;;;;;;10.55;7.00;;;14.70;98.40;;;;;;4965657;28;20057;-75
2023/04/10 10:26:22;;;;;;;10.77;7.65;;;14.60;98.70;;;;;;4947279;28;20042;-75
2023/04/10 10:28:51;;;;;;;11.15;7.10;;;14.60;98.60;;;;;;4959732;28;20102;-77
2023/04/10 10:31:18;;;;;;;11.00;7.70;;;14.60;98.60;;;;;;4974039;28;20046;-75
2023/04/10 10:33:45;;;;;;;10.35;7.43;;;14.60;98.70;;;;;;4953233;28;20042;-77
2023/04/10 10:36:13;;;;;;;10.07;7.55;;;14.60;98.80;;;;;;4970412;28;20038;-75
2023/04/10 10:38:45;;;;;;;10.00;7.38;;;14.60;98.80;;;;;;4966072;28;20495;-75
2023/04/10 10:41:29;;;;;;;9.90;7.22;;;14.60;99.20;;;;;;4942238;28;20418;-75
2023/04/10 10:44:06;;;;;;;11.00;7.68;;;14.60;98.80;;;;;;4957448;28;20088;-75
2023/04/10 10:46:39;;;;;;;14.10;7.20;;;14.50;99.20;;;;;;4972856;28;20053;-78
2023/04/10 10:49:04;;;;;;;10.23;7.10;;;14.50;99.40;;;;;;4957538;28;20399;-76
2023/04/10 10:51:45;;;;;;;8.95;6.78;;;14.50;99.40;;;;;;4960039;28;20046;-75
2023/04/10 10:54:27;;;;;;;9.48;6.93;;;14.50;99.20;;;;;;4959318;28;20079;-80
2023/04/10 10:56:53;;;;;;;11.20;7.00;;;14.60;99.10;;;;;;4960186;28;20125;-76
2023/04/10 10:59:47;;;;;;;8.25;6.38;;;14.70;99.40;;;;;;4980736;28;20113;-75
2023/04/10 11:02:17;;;;;;;8.45;6.28;;;14.80;99.20;;;;;;4965392;28;20388;-78
2023/04/10 11:04:44;;;;;;;14.38;7.15;;;14.80;99.10;;;;;;4955780;28;20053;-77
2023/04/10 11:07:11;;;;;;;8.77;6.28;;;14.90;98.80;;;;;;4966506;28;20057;-76
2023/04/10 11:09:56;;;;;;;9.52;6.63;;;14.90;99.10;;;;;;4963674;28;20064;-75
2023/04/10 11:12:23;;;;;;;8.65;6.68;;;14.90;98.70;;;;;;4968179;28;20065;-76
2023/04/10 11:15:02;;;;;;;8.98;6.47;;;14.90;98.60;;;;;;4961724;28;20077;-75
2023/04/10 11:17:50;;;;;;;9.70;6.13;;;14.90;98.90;;;;;;4960678;28;20050;-77
2023/04/10 11:20:27;;;;;;;10.43;6.10;;;14.90;98.40;;;;;;4954786;28;20042;-75
2023/04/10 11:23:22;;;;;;;9.32;6.43;;;14.90;98.30;;;;;;4957167;28;20058;-75
2023/04/10 11:25:53;;;;;;;9.10;6.53;;;14.90;98.30;;;;;;4944313;28;20229;-75
2023/04/10 11:28:30;;;;;;;8.63;6.18;;;14.80;98.20;;;;;;4957724;28;20049;-75
2023/04/10 11:31:12;;;;;;;9.20;6.18;;;14.80;98.40;;;;;;4962948;28;20436;-76
2023/04/10 11:33:39;;;;;;;9.02;5.97;;;14.80;98.60;;;;;;4967282;28;20513;-76
2023/04/10 11:36:05;;;;;;;9.00;5.95;;;14.80;98.70;;;;;;4967068;28;20039;-76
2023/04/10 11:38:31;;;;;;;9.30;6.38;;;14.80;98.70;;;;;;4955582;28;20521;-75
2023/04/10 11:41:06;;;;;;;9.10;5.88;;;14.80;98.30;;;;;;4959702;28;20038;-76
2023/04/10 11:43:32;;;;;;;8.82;6.28;;;14.90;98.40;;;;;;4959744;28;20446;-78
2023/04/10 11:46:03;;;;;;;9.32;5.97;;;14.90;98.60;;;;;;4952615;28;20050;-77
2023/04/10 11:48:30;;;;;;;10.10;6.35;;;14.90;98.90;;;;;;4956144;28;20057;-75
2023/04/10 11:50:56;;;;;;;10.32;6.40;;;15.00;98.90;;;;;;4968486;28;20085;-75
2023/04/10 11:53:21;;;;;;;11.07;7.05;;;15.00;98.70;;;;;;4956222;28;20046;-75
2023/04/10 11:55:47;;;;;;;10.77;6.57;;;15.10;98.60;;;;;;4965832;28;20045;-76
2023/04/10 11:58:26;;;;;;;8.45;6.28;;;15.20;98.60;;;;;;4957716;28;20478;-76
2023/04/10 12:01:13;;;;;;;8.65;6.50;;;15.30;98.40;;;;;;4961285;28;20237;-75
2023/04/10 12:03:42;;;;;;;9.77;6.90;;;15.40;98.50;;;;;;4961374;28;20050;-77
2023/04/10 12:06:11;;;;;;;8.52;6.35;;;15.40;98.40;;;;;;4972463;28;20035;-78
2023/04/10 12:08:45;;;;;;;13.00;6.45;;;15.50;98.30;;;;;;4956122;28;20125;-75
2023/04/10 12:11:11;;;;;;;9.15;6.43;;;15.50;98.30;;;;;;4955312;28;20077;-78
2023/04/10 12:13:37;;;;;;;9.20;6.57;;;15.60;98.70;;;;;;4964118;28;20038;-75
2023/04/10 12:16:06;;;;;;;8.68;6.35;;;15.80;98.00;;;;;;4966962;28;20109;-76
2023/04/10 12:18:32;;;;;;;8.13;6.30;;;16.00;97.50;;;;;;4980519;28;20078;-76
2023/04/10 12:20:59;;;;;;;8.15;5.88;;;16.00;97.40;;;;;;4965928;28;20046;-75
2023/04/10 12:23:26;;;;;;;8.15;6.00;;;16.00;98.10;;;;;;4939500;28;20047;-75
2023/04/10 12:26:04;;;;;;;8.90;6.45;;;15.90;98.00;;;;;;4954396;28;20058;-75
2023/04/10 12:28:30;;;;;;;8.60;5.78;;;15.90;98.20;;;;;;4953016;28;20053;-80
2023/04/10 12:30:56;;;;;;;9.25;6.15;;;15.80;97.80;;;;;;4961216;28;20461;-76
2023/04/10 12:33:23;;;;;;;9.60;6.47;;;15.80;97.40;;;;;;4966543;28;20050;-77
2023/04/10 12:35:50;;;;;;;8.57;6.35;;;15.70;97.40;;;;;;4958913;28;20035;-75
2023/04/10 12:38:35;;;;;;;10.10;6.20;;;15.60;97.50;;;;;;4966686;28;20058;-77
2023/04/10 12:41:01;;;;;;;9.57;6.00;;;15.60;97.60;;;;;;4953600;28;20039;-76